• Join FlightAware (Why Join?)
  • Login
  • US Flag 
06:40PM EDT


 

Airport Tracker/Info


-or-


 

Live Flight TrackerFlight Track Log ✈ SWA2770 ✈ 10-Jul-2013 ✈ KDAL - KSAT

Flight Track Log - Related Links

Times and Time Zones

All times are in EDT time to prevent confusion due to time zone crossing. See the SWA2770 flight status page for this flight to view local times or setup timezone preferences in your user account.

Time Position Orientation Groundspeed Altitude Reporting Facility
EDT Latitude Longitude Course Direction KTS MPH feet Rate Location/Type
07:04AM 32.8333 -96.8333 128° Southeast 154 177 1,400  Level Dallas / Fort Worth TRACON
07:05AM 32.8000 -96.7833 128° Southeast 205 236 6,200 3,300 Climbing Dallas / Fort Worth TRACON
07:07AM 32.7003 -96.8086 192° South 281 323 10,700 3,180 Climbing Fort Worth Center
07:08AM 32.6192 -96.8583 207° Southwest 340 391 14,500 3,900 Climbing Fort Worth Center
07:09AM 32.5297 -96.9108 206° Southwest 365 420 18,600 3,900 Climbing Fort Worth Center
07:10AM 32.4275 -96.9753 208° Southwest 375 432 22,400 3,360 Climbing Fort Worth Center
07:11AM 32.3275 -97.0347 207° Southwest 388 447 25,400 3,300 Climbing Fort Worth Center
07:12AM 32.2169 -97.0647 193° South 398 458 29,000 2,280 Climbing Fort Worth Center
07:13AM 32.1064 -97.0675 181° South 398 458 30,000 480 Climbing Fort Worth Center
07:14AM 31.9958 -97.0706 181° South 398 458 30,000  Level Fort Worth Center
07:15AM 31.8850 -97.0733 181° South 398 458 30,000  Level Fort Worth Center
07:16AM 31.7828 -97.0736 180° South 404 465 30,000  Level Fort Worth Center
07:17AM 31.6722 -97.0786 182° South 408 470 30,000  Level Houston Center
07:18AM 31.5586 -97.0825 182° South 405 466 30,000  Level Houston Center
07:19AM 31.4481 -97.1150 194° South 407 468 30,000  Level Houston Center
07:20AM 31.3214 -97.1656 199° South 408 470 30,000  Level Houston Center
07:21AM 31.2139 -97.2081 199° South 405 466 30,000  Level Houston Center
07:22AM 31.1067 -97.2497 198° South 404 465 30,000  Level Houston Center
07:23AM 31.0092 -97.2864 198° South 409 471 30,000  Level Houston Center
07:24AM 30.8903 -97.3342 199° South 422 486 30,000  Level Houston Center
07:25AM 30.7822 -97.3744 198° South 412 474 30,000  Level Houston Center
07:26AM 30.6731 -97.4169 199° South 409 471 30,000 -480 Level Houston Center
07:27AM 30.5644 -97.4594 199° South 408 470 29,100 -1,920 Descending Houston Center
07:28AM 30.4558 -97.5011 198° South 407 468 26,200 -2,580 Descending Houston Center
07:29AM 30.3494 -97.5486 201° Southwest 408 470 23,900 -2,280 Descending Houston Center
07:30AM 30.2553 -97.6158 212° Southwest 394 453 21,600 -2,220 Descending Houston Center
07:31AM 30.1639 -97.6792 211° Southwest 381 438 19,500 -2,040 Descending Houston Center
07:32AM 30.0661 -97.7447 210° Southwest 365 420 17,500 -2,220 Descending Houston Center
07:33AM 29.9822 -97.8036 211° Southwest 354 407 15,100 -2,220 Descending Houston Center
07:34AM 29.8942 -97.8667 212° Southwest 347 399 13,000 -1,560 Descending Houston Center
07:35AM 29.8553 -97.9617 245° Southwest 326 375 12,000 -1,320 Descending Houston Center
07:36AM 29.8169 -98.0525 244° Southwest 316 364 10,400 -1,320 Descending Houston Center
07:37AM 29.7806 -98.1381 244° Southwest 300 345 9,400 -1,080 Descending Houston Center
07:38AM 29.7528 -98.2331 251° West 295 339 8,300 -1,080 Descending Houston Center
07:39AM 29.7508 -98.3267 269° West 296 341 7,300 -1,080 Descending Houston Center
07:40AM 29.7472 -98.4156 267° West 282 325 6,200 -1,080 Descending Houston Center
07:41AM 29.7431 -98.5072 267° West 263 303 5,200 -540 Descending Houston Center
07:42AM 29.7383 -98.5869 266° West 253 291 5,200 -60 Level Houston Center
07:43AM 29.6939 -98.6381 225° Southwest 228 262 5,100 -600 Descending Houston Center
07:44AM 29.6486 -98.6242 165° South 198 228 4,000 -1,080 Descending Houston Center
07:45AM 29.6150 -98.5778 130° Southeast 185 213 3,000 -960 Descending Houston Center
07:46AM 29.5844 -98.5406 133° Southeast 160 184 2,100 -840 Descending Houston Center
07:47AM 29.5603 -98.5075 130° Southeast 116 133 1,400 -600 Descending Houston Center
07:49AM 29.5386 -98.4778 130° Southeast 120 138 900 -480 Descending Houston Center
07:51AM 29.5340 -98.4691 221° Southwest  Level Estimated